createdAt,value
2023-03-31T00:01:19.905Z,96520.00
2023-03-31T00:11:22.584Z,96512.13
2023-03-31T00:21:25.604Z,96512.63
2023-03-31T00:31:29.457Z,96501.81
2023-03-31T00:41:32.877Z,96504.81
2023-03-31T00:51:35.996Z,96486.28
2023-03-31T01:01:43.239Z,96482.56
2023-03-31T01:11:47.759Z,96461.50
2023-03-31T01:22:08.897Z,96452.28
2023-03-31T01:32:26.844Z,96439.34
2023-03-31T01:42:39.851Z,96423.28
2023-03-31T01:52:44.966Z,96415.59
2023-03-31T02:03:34.706Z,96409.19
2023-03-31T05:05:13.364Z,96232.94
2023-03-31T05:15:16.798Z,96198.25
2023-03-31T05:25:20.357Z,96185.38
2023-03-31T05:35:23.945Z,96174.03
2023-03-31T05:45:26.417Z,96155.44
2023-03-31T05:55:28.942Z,96151.97
2023-03-31T06:05:32.604Z,96154.03
2023-03-31T06:15:34.927Z,96128.94
2023-03-31T06:25:50.315Z,96111.03
2023-03-31T06:35:56.717Z,96109.19
2023-03-31T06:45:59.455Z,96100.34
2023-03-31T06:56:02.263Z,96083.75
2023-03-31T07:06:04.852Z,96062.31
2023-03-31T07:16:08.460Z,96054.91
2023-03-31T07:26:11.740Z,96058.63
2023-03-31T07:36:14.535Z,96054.09
2023-03-31T07:46:28.297Z,96063.22
2023-03-31T07:56:30.917Z,96048.50
2023-03-31T08:06:33.624Z,96000.72
2023-03-31T08:16:36.698Z,95993.72
2023-03-31T08:26:39.209Z,96002.22
2023-03-31T08:36:41.786Z,95977.84
2023-03-31T08:46:44.626Z,95982.81
2023-03-31T08:56:50.079Z,95949.84
2023-03-31T09:07:20.506Z,95945.13
2023-03-31T09:17:38.827Z,95941.84
2023-03-31T09:27:43.322Z,95934.56
2023-03-31T09:37:45.662Z,95912.13
2023-03-31T09:47:54.142Z,95937.38
2023-03-31T09:57:56.541Z,95924.63
2023-03-31T10:08:17.316Z,95888.53
2023-03-31T10:18:21.214Z,95870.75
2023-03-31T10:28:24.532Z,95851.91
2023-03-31T10:38:32.275Z,95822.84
2023-03-31T10:48:41.327Z,95817.06
2023-03-31T10:59:38.980Z,95818.56
2023-03-31T11:09:58.099Z,95793.66
2023-03-31T11:20:27.827Z,95789.34
2023-03-31T11:30:45.534Z,95784.31
2023-03-31T11:40:59.378Z,95753.75
2023-03-31T11:51:05.252Z,95756.94
2023-03-31T12:01:17.252Z,95743.00
2023-03-31T12:11:32.169Z,95726.13
2023-03-31T12:21:39.232Z,95700.13
2023-03-31T12:31:44.532Z,95679.13
2023-03-31T12:42:05.229Z,95662.00
2023-03-31T12:52:22.831Z,95644.09
2023-03-31T13:02:26.620Z,95630.59
2023-03-31T13:12:31.582Z,95610.13
2023-03-31T13:22:36.953Z,95612.84
2023-03-31T13:32:40.421Z,95581.41
2023-03-31T13:42:58.002Z,95559.22
2023-03-31T13:53:49.981Z,95558.25
2023-03-31T14:03:58.272Z,95546.41
2023-03-31T14:14:17.884Z,95511.91
2023-03-31T14:24:36.894Z,95501.25
2023-03-31T14:35:20.353Z,95484.25
2023-03-31T14:45:31.741Z,95465.56
2023-03-31T14:55:49.432Z,95479.31
2023-03-31T15:06:02.355Z,95471.44
2023-03-31T15:16:47.296Z,95473.19
2023-03-31T15:27:03.051Z,95490.19
2023-03-31T15:37:08.048Z,95480.59
2023-03-31T15:47:19.080Z,95470.72
2023-03-31T15:57:22.671Z,95448.84
2023-03-31T16:07:33.713Z,95444.69
2023-03-31T16:17:43.338Z,95439.59
2023-03-31T16:27:49.951Z,95424.91
2023-03-31T16:37:55.227Z,95432.88
2023-03-31T16:48:02.012Z,95448.53
2023-03-31T16:58:11.730Z,95448.22
2023-03-31T17:08:15.933Z,95436.09
2023-03-31T17:18:18.601Z,95426.03
2023-03-31T17:28:21.022Z,95447.91
2023-03-31T17:38:23.453Z,95466.56
2023-03-31T17:48:26.686Z,95465.38
2023-03-31T17:58:29.599Z,95467.28
2023-03-31T18:08:32.721Z,95473.53
2023-03-31T18:18:36.945Z,95471.56
2023-03-31T18:28:41.145Z,95478.47
2023-03-31T18:38:44.109Z,95474.03
2023-03-31T18:48:47.019Z,95468.84
2023-03-31T18:58:49.404Z,95475.03
2023-03-31T19:08:52.241Z,95505.47
2023-03-31T19:18:54.946Z,95514.78
2023-03-31T19:28:58.319Z,95527.09
2023-03-31T19:39:02.636Z,95533.09
2023-03-31T19:49:05.309Z,95541.63
2023-03-31T19:59:07.859Z,95528.81
2023-03-31T20:09:11.157Z,95512.38
2023-03-31T20:19:16.627Z,95504.88
2023-03-31T20:29:19.236Z,95509.31
2023-03-31T20:40:13.919Z,95504.28
2023-03-31T20:50:17.025Z,95496.94
2023-03-31T21:10:12.295Z,95512.81
2023-03-31T21:20:14.957Z,95516.22
2023-03-31T21:30:18.598Z,95518.91
2023-03-31T21:40:21.738Z,95525.03
2023-03-31T21:50:24.042Z,95530.59
2023-03-31T22:00:26.952Z,95530.50
2023-03-31T22:10:29.300Z,95538.94
2023-03-31T22:27:11.622Z,95530.53
2023-03-31T22:37:14.436Z,95523.09
2023-03-31T22:47:16.843Z,95519.09
2023-03-31T22:57:19.354Z,95527.53
2023-03-31T23:07:22.475Z,95526.91
2023-03-31T23:17:24.960Z,95531.72
2023-03-31T23:27:27.511Z,95525.00
2023-03-31T23:37:29.863Z,95518.69
2023-03-31T23:47:32.995Z,95509.72
2023-03-31T23:57:35.684Z,95504.84
